sensor_id;sensor_type;location;lat;lon;timestamp;P1;durP1;ratioP1;P2;durP2;ratioP2
20391;SDS011;10355;53.688;10.078;2023-04-03T00:00:01;1.83;;;0.90;;
20391;SDS011;10355;53.688;10.078;2023-04-03T00:02:46;2.33;;;0.80;;
20391;SDS011;10355;53.688;10.078;2023-04-03T00:05:29;3.45;;;1.02;;
20391;SDS011;10355;53.688;10.078;2023-04-03T00:08:13;2.15;;;1.00;;
20391;SDS011;10355;53.688;10.078;2023-04-03T00:10:56;3.58;;;1.13;;
20391;SDS011;10355;53.688;10.078;2023-04-03T00:13:39;2.20;;;0.98;;
20391;SDS011;10355;53.688;10.078;2023-04-03T00:16:22;2.70;;;0.82;;
20391;SDS011;10355;53.688;10.078;2023-04-03T00:19:04;4.18;;;1.20;;
20391;SDS011;10355;53.688;10.078;2023-04-03T00:21:47;2.58;;;1.10;;
20391;SDS011;10355;53.688;10.078;2023-04-03T00:24:31;4.63;;;1.10;;
20391;SDS011;10355;53.688;10.078;2023-04-03T00:27:14;4.47;;;1.17;;
20391;SDS011;10355;53.688;10.078;2023-04-03T00:29:57;3.72;;;1.02;;
20391;SDS011;10355;53.688;10.078;2023-04-03T00:32:39;2.40;;;1.20;;
20391;SDS011;10355;53.688;10.078;2023-04-03T00:35:22;2.30;;;1.10;;
20391;SDS011;10355;53.688;10.078;2023-04-03T00:38:06;2.63;;;0.95;;
20391;SDS011;10355;53.688;10.078;2023-04-03T00:40:50;2.55;;;1.00;;
20391;SDS011;10355;53.688;10.078;2023-04-03T00:43:32;2.85;;;0.93;;
20391;SDS011;10355;53.688;10.078;2023-04-03T00:46:15;3.42;;;0.95;;
20391;SDS011;10355;53.688;10.078;2023-04-03T00:48:58;2.80;;;1.13;;
20391;SDS011;10355;53.688;10.078;2023-04-03T00:51:41;5.05;;;0.90;;
20391;SDS011;10355;53.688;10.078;2023-04-03T00:54:24;3.63;;;0.90;;
20391;SDS011;10355;53.688;10.078;2023-04-03T00:57:09;1.77;;;0.90;;
20391;SDS011;10355;53.688;10.078;2023-04-03T00:59:53;3.90;;;1.10;;
20391;SDS011;10355;53.688;10.078;2023-04-03T01:02:37;2.90;;;0.90;;
20391;SDS011;10355;53.688;10.078;2023-04-03T01:05:24;3.08;;;1.02;;
20391;SDS011;10355;53.688;10.078;2023-04-03T01:08:06;4.30;;;1.13;;
20391;SDS011;10355;53.688;10.078;2023-04-03T01:10:50;3.70;;;1.00;;
20391;SDS011;10355;53.688;10.078;2023-04-03T01:13:35;4.03;;;1.13;;
20391;SDS011;10355;53.688;10.078;2023-04-03T01:16:20;2.72;;;1.10;;
20391;SDS011;10355;53.688;10.078;2023-04-03T01:19:03;2.42;;;0.80;;
20391;SDS011;10355;53.688;10.078;2023-04-03T01:21:53;2.50;;;0.90;;
20391;SDS011;10355;53.688;10.078;2023-04-03T01:24:37;3.78;;;0.93;;
20391;SDS011;10355;53.688;10.078;2023-04-03T01:27:23;2.42;;;0.80;;
20391;SDS011;10355;53.688;10.078;2023-04-03T01:30:08;2.85;;;1.10;;
20391;SDS011;10355;53.688;10.078;2023-04-03T01:32:53;2.30;;;1.13;;
20391;SDS011;10355;53.688;10.078;2023-04-03T01:35:36;2.50;;;0.85;;
20391;SDS011;10355;53.688;10.078;2023-04-03T01:38:20;3.90;;;1.05;;
20391;SDS011;10355;53.688;10.078;2023-04-03T01:41:03;2.28;;;0.90;;
20391;SDS011;10355;53.688;10.078;2023-04-03T01:43:46;2.72;;;0.98;;
20391;SDS011;10355;53.688;10.078;2023-04-03T01:46:29;3.10;;;0.93;;
20391;SDS011;10355;53.688;10.078;2023-04-03T01:49:14;3.05;;;0.90;;
20391;SDS011;10355;53.688;10.078;2023-04-03T01:51:56;4.10;;;0.85;;
20391;SDS011;10355;53.688;10.078;2023-04-03T01:54:39;3.38;;;1.05;;
20391;SDS011;10355;53.688;10.078;2023-04-03T01:57:22;2.80;;;0.90;;
20391;SDS011;10355;53.688;10.078;2023-04-03T02:00:05;2.35;;;1.00;;
20391;SDS011;10355;53.688;10.078;2023-04-03T02:02:53;2.25;;;1.05;;
20391;SDS011;10355;53.688;10.078;2023-04-03T02:05:37;2.20;;;1.02;;
20391;SDS011;10355;53.688;10.078;2023-04-03T02:08:20;3.50;;;1.02;;
20391;SDS011;10355;53.688;10.078;2023-04-03T02:11:02;2.05;;;0.90;;
20391;SDS011;10355;53.688;10.078;2023-04-03T02:13:47;4.43;;;1.10;;
20391;SDS011;10355;53.688;10.078;2023-04-03T02:16:29;4.28;;;1.20;;
20391;SDS011;10355;53.688;10.078;2023-04-03T02:19:12;3.67;;;1.17;;
20391;SDS011;10355;53.688;10.078;2023-04-03T02:21:57;2.15;;;1.20;;
20391;SDS011;10355;53.688;10.078;2023-04-03T02:24:40;1.77;;;0.95;;
20391;SDS011;10355;53.688;10.078;2023-04-03T02:27:23;3.65;;;1.20;;
20391;SDS011;10355;53.688;10.078;2023-04-03T02:30:06;5.00;;;1.40;;
20391;SDS011;10355;53.688;10.078;2023-04-03T02:32:51;3.00;;;1.20;;
20391;SDS011;10355;53.688;10.078;2023-04-03T02:35:34;2.90;;;1.10;;
20391;SDS011;10355;53.688;10.078;2023-04-03T02:38:19;2.75;;;1.00;;
20391;SDS011;10355;53.688;10.078;2023-04-03T02:41:03;2.97;;;1.00;;
20391;SDS011;10355;53.688;10.078;2023-04-03T02:43:46;4.18;;;1.23;;
20391;SDS011;10355;53.688;10.078;2023-04-03T02:46:30;2.97;;;1.17;;
20391;SDS011;10355;53.688;10.078;2023-04-03T02:49:13;2.72;;;0.95;;
20391;SDS011;10355;53.688;10.078;2023-04-03T02:51:56;3.60;;;1.17;;
20391;SDS011;10355;53.688;10.078;2023-04-03T02:54:40;1.83;;;1.00;;
20391;SDS011;10355;53.688;10.078;2023-04-03T02:57:24;2.72;;;1.00;;
20391;SDS011;10355;53.688;10.078;2023-04-03T03:00:08;3.47;;;1.00;;
20391;SDS011;10355;53.688;10.078;2023-04-03T03:02:51;2.85;;;1.02;;
20391;SDS011;10355;53.688;10.078;2023-04-03T03:05:33;2.72;;;1.00;;
20391;SDS011;10355;53.688;10.078;2023-04-03T03:08:17;2.88;;;1.00;;
20391;SDS011;10355;53.688;10.078;2023-04-03T03:11:03;3.95;;;1.13;;
20391;SDS011;10355;53.688;10.078;2023-04-03T03:13:47;2.17;;;0.98;;
20391;SDS011;10355;53.688;10.078;2023-04-03T03:16:29;3.30;;;1.02;;
20391;SDS011;10355;53.688;10.078;2023-04-03T03:19:12;3.22;;;1.02;;
20391;SDS011;10355;53.688;10.078;2023-04-03T03:21:55;3.80;;;1.10;;
20391;SDS011;10355;53.688;10.078;2023-04-03T03:24:38;1.80;;;1.00;;
20391;SDS011;10355;53.688;10.078;2023-04-03T03:27:22;2.00;;;1.00;;
20391;SDS011;10355;53.688;10.078;2023-04-03T03:30:05;3.33;;;1.02;;
20391;SDS011;10355;53.688;10.078;2023-04-03T03:32:49;3.83;;;1.20;;
20391;SDS011;10355;53.688;10.078;2023-04-03T03:35:32;5.20;;;1.20;;
20391;SDS011;10355;53.688;10.078;2023-04-03T03:38:14;2.92;;;1.05;;
20391;SDS011;10355;53.688;10.078;2023-04-03T03:40:57;2.65;;;0.90;;
20391;SDS011;10355;53.688;10.078;2023-04-03T03:43:42;4.00;;;1.10;;
20391;SDS011;10355;53.688;10.078;2023-04-03T03:46:26;3.60;;;1.05;;
20391;SDS011;10355;53.688;10.078;2023-04-03T03:49:09;5.35;;;1.08;;
20391;SDS011;10355;53.688;10.078;2023-04-03T03:51:53;3.40;;;0.95;;
20391;SDS011;10355;53.688;10.078;2023-04-03T03:54:36;2.85;;;1.00;;
20391;SDS011;10355;53.688;10.078;2023-04-03T03:57:19;2.80;;;1.00;;
20391;SDS011;10355;53.688;10.078;2023-04-03T04:00:04;1.92;;;1.00;;
20391;SDS011;10355;53.688;10.078;2023-04-03T04:02:55;3.75;;;1.23;;
20391;SDS011;10355;53.688;10.078;2023-04-03T04:05:41;2.40;;;1.08;;
20391;SDS011;10355;53.688;10.078;2023-04-03T04:08:24;4.90;;;0.90;;
20391;SDS011;10355;53.688;10.078;2023-04-03T04:11:07;6.20;;;1.30;;
20391;SDS011;10355;53.688;10.078;2023-04-03T04:13:50;2.72;;;0.98;;
20391;SDS011;10355;53.688;10.078;2023-04-03T04:16:38;2.05;;;0.90;;
20391;SDS011;10355;53.688;10.078;2023-04-03T04:19:27;2.00;;;1.00;;
20391;SDS011;10355;53.688;10.078;2023-04-03T04:22:10;2.85;;;0.95;;
20391;SDS011;10355;53.688;10.078;2023-04-03T04:24:52;4.70;;;1.33;;
20391;SDS011;10355;53.688;10.078;2023-04-03T04:27:35;3.55;;;1.00;;
20391;SDS011;10355;53.688;10.078;2023-04-03T04:30:18;2.00;;;1.00;;
20391;SDS011;10355;53.688;10.078;2023-04-03T04:33:04;5.00;;;1.42;;
20391;SDS011;10355;53.688;10.078;2023-04-03T04:35:48;3.47;;;1.10;;
20391;SDS011;10355;53.688;10.078;2023-04-03T04:38:33;2.13;;;1.00;;
20391;SDS011;10355;53.688;10.078;2023-04-03T04:41:16;3.70;;;1.17;;
20391;SDS011;10355;53.688;10.078;2023-04-03T04:44:00;2.15;;;1.20;;
20391;SDS011;10355;53.688;10.078;2023-04-03T04:46:43;4.43;;;1.00;;
20391;SDS011;10355;53.688;10.078;2023-04-03T04:49:28;5.38;;;1.38;;
20391;SDS011;10355;53.688;10.078;2023-04-03T04:52:11;2.88;;;1.10;;
20391;SDS011;10355;53.688;10.078;2023-04-03T04:54:55;2.78;;;1.00;;
20391;SDS011;10355;53.688;10.078;2023-04-03T04:57:37;2.22;;;1.00;;
20391;SDS011;10355;53.688;10.078;2023-04-03T05:00:21;2.85;;;1.10;;
20391;SDS011;10355;53.688;10.078;2023-04-03T05:03:04;2.60;;;1.13;;
20391;SDS011;10355;53.688;10.078;2023-04-03T05:05:48;5.63;;;1.42;;
20391;SDS011;10355;53.688;10.078;2023-04-03T05:08:31;2.25;;;1.00;;
20391;SDS011;10355;53.688;10.078;2023-04-03T05:11:14;4.25;;;1.40;;
20391;SDS011;10355;53.688;10.078;2023-04-03T05:13:59;3.45;;;1.10;;
20391;SDS011;10355;53.688;10.078;2023-04-03T05:16:43;2.00;;;1.08;;
20391;SDS011;10355;53.688;10.078;2023-04-03T05:19:26;5.50;;;1.60;;
20391;SDS011;10355;53.688;10.078;2023-04-03T05:22:11;2.60;;;1.20;;
20391;SDS011;10355;53.688;10.078;2023-04-03T05:24:54;3.88;;;1.65;;
20391;SDS011;10355;53.688;10.078;2023-04-03T05:27:37;5.13;;;1.70;;
20391;SDS011;10355;53.688;10.078;2023-04-03T05:30:20;2.88;;;1.20;;
20391;SDS011;10355;53.688;10.078;2023-04-03T05:33:04;4.35;;;1.30;;
20391;SDS011;10355;53.688;10.078;2023-04-03T05:35:54;3.75;;;1.60;;
20391;SDS011;10355;53.688;10.078;2023-04-03T05:38:42;5.38;;;1.50;;
20391;SDS011;10355;53.688;10.078;2023-04-03T05:41:25;4.32;;;1.35;;
20391;SDS011;10355;53.688;10.078;2023-04-03T05:44:09;5.35;;;1.48;;
20391;SDS011;10355;53.688;10.078;2023-04-03T05:46:52;3.60;;;1.40;;
20391;SDS011;10355;53.688;10.078;2023-04-03T05:49:34;5.75;;;1.70;;
20391;SDS011;10355;53.688;10.078;2023-04-03T05:52:18;3.08;;;1.25;;
20391;SDS011;10355;53.688;10.078;2023-04-03T05:55:04;2.38;;;1.08;;
20391;SDS011;10355;53.688;10.078;2023-04-03T05:57:48;4.38;;;1.10;;
20391;SDS011;10355;53.688;10.078;2023-04-03T06:00:31;12.13;;;1.73;;
20391;SDS011;10355;53.688;10.078;2023-04-03T06:03:16;9.02;;;1.30;;
20391;SDS011;10355;53.688;10.078;2023-04-03T06:06:00;4.65;;;1.20;;
20391;SDS011;10355;53.688;10.078;2023-04-03T06:08:44;3.67;;;1.35;;
20391;SDS011;10355;53.688;10.078;2023-04-03T06:11:28;7.03;;;1.23;;
20391;SDS011;10355;53.688;10.078;2023-04-03T06:14:11;3.53;;;1.10;;
20391;SDS011;10355;53.688;10.078;2023-04-03T06:16:54;2.92;;;1.10;;
20391;SDS011;10355;53.688;10.078;2023-04-03T06:19:37;4.47;;;1.23;;
20391;SDS011;10355;53.688;10.078;2023-04-03T06:22:20;2.20;;;1.10;;
20391;SDS011;10355;53.688;10.078;2023-04-03T06:25:03;2.92;;;1.23;;
20391;SDS011;10355;53.688;10.078;2023-04-03T06:27:47;5.45;;;1.35;;
20391;SDS011;10355;53.688;10.078;2023-04-03T06:30:30;5.10;;;1.35;;
20391;SDS011;10355;53.688;10.078;2023-04-03T06:33:13;4.43;;;1.25;;
20391;SDS011;10355;53.688;10.078;2023-04-03T06:35:56;4.88;;;1.25;;
20391;SDS011;10355;53.688;10.078;2023-04-03T06:38:39;2.15;;;1.00;;
20391;SDS011;10355;53.688;10.078;2023-04-03T06:41:22;4.28;;;1.10;;
20391;SDS011;10355;53.688;10.078;2023-04-03T06:44:06;3.85;;;1.30;;
20391;SDS011;10355;53.688;10.078;2023-04-03T06:46:52;3.22;;;1.25;;
20391;SDS011;10355;53.688;10.078;2023-04-03T06:49:35;4.50;;;1.20;;
20391;SDS011;10355;53.688;10.078;2023-04-03T06:52:19;3.40;;;1.20;;
20391;SDS011;10355;53.688;10.078;2023-04-03T06:55:03;3.17;;;1.23;;
20391;SDS011;10355;53.688;10.078;2023-04-03T06:57:46;2.88;;;1.20;;
20391;SDS011;10355;53.688;10.078;2023-04-03T07:00:30;4.10;;;1.33;;
20391;SDS011;10355;53.688;10.078;2023-04-03T07:03:13;4.22;;;1.40;;
20391;SDS011;10355;53.688;10.078;2023-04-03T07:05:55;2.83;;;1.17;;
20391;SDS011;10355;53.688;10.078;2023-04-03T07:08:38;2.22;;;1.10;;
20391;SDS011;10355;53.688;10.078;2023-04-03T07:11:21;4.18;;;1.42;;
20391;SDS011;10355;53.688;10.078;2023-04-03T07:14:05;3.15;;;1.20;;
20391;SDS011;10355;53.688;10.078;2023-04-03T07:16:50;1.45;;;0.80;;
20391;SDS011;10355;53.688;10.078;2023-04-03T07:19:33;2.22;;;1.10;;
20391;SDS011;10355;53.688;10.078;2023-04-03T07:22:15;3.25;;;0.90;;
20391;SDS011;10355;53.688;10.078;2023-04-03T07:24:58;4.03;;;1.08;;
20391;SDS011;10355;53.688;10.078;2023-04-03T07:27:41;3.50;;;1.00;;
20391;SDS011;10355;53.688;10.078;2023-04-03T07:30:24;3.45;;;1.00;;
20391;SDS011;10355;53.688;10.078;2023-04-03T07:33:09;3.63;;;1.00;;
20391;SDS011;10355;53.688;10.078;2023-04-03T07:35:51;2.03;;;0.90;;
20391;SDS011;10355;53.688;10.078;2023-04-03T07:38:34;4.38;;;1.20;;
20391;SDS011;10355;53.688;10.078;2023-04-03T07:41:18;3.22;;;0.82;;
20391;SDS011;10355;53.688;10.078;2023-04-03T07:44:04;1.95;;;1.02;;
20391;SDS011;10355;53.688;10.078;2023-04-03T07:46:47;2.88;;;0.93;;
20391;SDS011;10355;53.688;10.078;2023-04-03T07:49:31;4.32;;;1.10;;
20391;SDS011;10355;53.688;10.078;2023-04-03T07:52:14;2.00;;;0.75;;
20391;SDS011;10355;53.688;10.078;2023-04-03T07:54:57;2.30;;;0.73;;
20391;SDS011;10355;53.688;10.078;2023-04-03T07:57:39;3.60;;;0.80;;
20391;SDS011;10355;53.688;10.078;2023-04-03T08:00:22;3.22;;;0.93;;
20391;SDS011;10355;53.688;10.078;2023-04-03T08:03:06;1.83;;;0.60;;
20391;SDS011;10355;53.688;10.078;2023-04-03T08:05:54;3.72;;;0.80;;
20391;SDS011;10355;53.688;10.078;2023-04-03T08:08:36;2.83;;;0.77;;
20391;SDS011;10355;53.688;10.078;2023-04-03T08:11:19;1.63;;;0.60;;
20391;SDS011;10355;53.688;10.078;2023-04-03T08:14:02;2.67;;;0.88;;
20391;SDS011;10355;53.688;10.078;2023-04-03T08:16:45;2.35;;;0.80;;
20391;SDS011;10355;53.688;10.078;2023-04-03T08:19:28;2.55;;;0.85;;
20391;SDS011;10355;53.688;10.078;2023-04-03T08:22:12;3.03;;;1.00;;
20391;SDS011;10355;53.688;10.078;2023-04-03T08:24:55;4.68;;;0.80;;
20391;SDS011;10355;53.688;10.078;2023-04-03T08:27:40;2.90;;;0.90;;
20391;SDS011;10355;53.688;10.078;2023-04-03T08:30:22;2.50;;;0.85;;
20391;SDS011;10355;53.688;10.078;2023-04-03T08:33:05;2.20;;;0.60;;
20391;SDS011;10355;53.688;10.078;2023-04-03T08:35:48;2.45;;;0.80;;
20391;SDS011;10355;53.688;10.078;2023-04-03T08:38:33;1.35;;;0.95;;
20391;SDS011;10355;53.688;10.078;2023-04-03T08:41:20;2.00;;;0.75;;
20391;SDS011;10355;53.688;10.078;2023-04-03T08:44:07;3.40;;;0.93;;
20391;SDS011;10355;53.688;10.078;2023-04-03T08:46:56;2.15;;;0.88;;
20391;SDS011;10355;53.688;10.078;2023-04-03T08:49:43;1.35;;;0.70;;
20391;SDS011;10355;53.688;10.078;2023-04-03T08:52:32;3.90;;;0.90;;
20391;SDS011;10355;53.688;10.078;2023-04-03T08:55:22;2.55;;;0.77;;
20391;SDS011;10355;53.688;10.078;2023-04-03T08:58:06;2.05;;;0.85;;
20391;SDS011;10355;53.688;10.078;2023-04-03T09:00:50;2.25;;;0.70;;
20391;SDS011;10355;53.688;10.078;2023-04-03T09:03:34;2.55;;;0.82;;
20391;SDS011;10355;53.688;10.078;2023-04-03T09:06:19;2.10;;;0.70;;
20391;SDS011;10355;53.688;10.078;2023-04-03T09:09:07;5.07;;;0.90;;
20391;SDS011;10355;53.688;10.078;2023-04-03T09:11:56;3.10;;;1.00;;
20391;SDS011;10355;53.688;10.078;2023-04-03T09:14:43;3.13;;;0.77;;
20391;SDS011;10355;53.688;10.078;2023-04-03T09:17:33;2.45;;;0.85;;
20391;SDS011;10355;53.688;10.078;2023-04-03T09:20:19;2.25;;;0.90;;
20391;SDS011;10355;53.688;10.078;2023-04-03T09:23:08;2.92;;;0.70;;
20391;SDS011;10355;53.688;10.078;2023-04-03T09:25:56;1.85;;;0.70;;
20391;SDS011;10355;53.688;10.078;2023-04-03T09:28:41;1.13;;;0.70;;
20391;SDS011;10355;53.688;10.078;2023-04-03T09:31:35;1.58;;;0.63;;
20391;SDS011;10355;53.688;10.078;2023-04-03T09:34:22;1.45;;;0.60;;
20391;SDS011;10355;53.688;10.078;2023-04-03T09:37:05;1.65;;;0.50;;
20391;SDS011;10355;53.688;10.078;2023-04-03T09:39:49;2.20;;;0.60;;
20391;SDS011;10355;53.688;10.078;2023-04-03T09:42:32;1.33;;;0.50;;
20391;SDS011;10355;53.688;10.078;2023-04-03T09:45:21;1.38;;;0.40;;
20391;SDS011;10355;53.688;10.078;2023-04-03T09:48:06;3.42;;;0.80;;
20391;SDS011;10355;53.688;10.078;2023-04-03T09:50:57;1.42;;;0.57;;
20391;SDS011;10355;53.688;10.078;2023-04-03T09:53:41;1.33;;;0.50;;
20391;SDS011;10355;53.688;10.078;2023-04-03T09:56:25;2.83;;;0.60;;
20391;SDS011;10355;53.688;10.078;2023-04-03T09:59:13;1.75;;;0.60;;
20391;SDS011;10355;53.688;10.078;2023-04-03T10:02:00;2.33;;;0.52;;
20391;SDS011;10355;53.688;10.078;2023-04-03T10:04:43;2.30;;;0.50;;
20391;SDS011;10355;53.688;10.078;2023-04-03T10:07:30;1.25;;;0.50;;
20391;SDS011;10355;53.688;10.078;2023-04-03T10:10:18;1.35;;;0.60;;
20391;SDS011;10355;53.688;10.078;2023-04-03T10:13:05;3.83;;;0.65;;
20391;SDS011;10355;53.688;10.078;2023-04-03T10:15:54;2.35;;;0.60;;
20391;SDS011;10355;53.688;10.078;2023-04-03T10:18:40;2.75;;;0.75;;
20391;SDS011;10355;53.688;10.078;2023-04-03T10:21:29;2.28;;;0.47;;
20391;SDS011;10355;53.688;10.078;2023-04-03T10:24:14;3.15;;;0.80;;
20391;SDS011;10355;53.688;10.078;2023-04-03T10:27:00;2.38;;;0.60;;
20391;SDS011;10355;53.688;10.078;2023-04-03T10:29:46;1.15;;;0.68;;
20391;SDS011;10355;53.688;10.078;2023-04-03T10:32:37;2.13;;;0.68;;
20391;SDS011;10355;53.688;10.078;2023-04-03T10:35:30;3.50;;;1.00;;
20391;SDS011;10355;53.688;10.078;2023-04-03T10:38:19;1.92;;;0.68;;
20391;SDS011;10355;53.688;10.078;2023-04-03T10:41:04;1.52;;;0.70;;
20391;SDS011;10355;53.688;10.078;2023-04-03T10:43:50;1.08;;;0.60;;
20391;SDS011;10355;53.688;10.078;2023-04-03T10:46:37;1.55;;;0.90;;
20391;SDS011;10355;53.688;10.078;2023-04-03T10:49:26;2.15;;;0.90;;
20391;SDS011;10355;53.688;10.078;2023-04-03T10:52:12;1.13;;;0.70;;
20391;SDS011;10355;53.688;10.078;2023-04-03T10:54:59;1.50;;;0.73;;
20391;SDS011;10355;53.688;10.078;2023-04-03T10:57:43;1.90;;;0.70;;
20391;SDS011;10355;53.688;10.078;2023-04-03T11:00:30;1.95;;;0.73;;
20391;SDS011;10355;53.688;10.078;2023-04-03T11:03:17;2.75;;;0.70;;
20391;SDS011;10355;53.688;10.078;2023-04-03T11:06:07;2.60;;;0.73;;
20391;SDS011;10355;53.688;10.078;2023-04-03T11:08:52;5.45;;;0.85;;
20391;SDS011;10355;53.688;10.078;2023-04-03T11:11:38;3.83;;;0.82;;
20391;SDS011;10355;53.688;10.078;2023-04-03T11:14:24;1.90;;;0.68;;
20391;SDS011;10355;53.688;10.078;2023-04-03T11:17:15;2.40;;;0.90;;
20391;SDS011;10355;53.688;10.078;2023-04-03T11:20:04;1.58;;;0.52;;
20391;SDS011;10355;53.688;10.078;2023-04-03T11:22:50;1.20;;;0.68;;
20391;SDS011;10355;53.688;10.078;2023-04-03T11:25:36;1.85;;;0.60;;
20391;SDS011;10355;53.688;10.078;2023-04-03T11:28:20;1.95;;;0.60;;
20391;SDS011;10355;53.688;10.078;2023-04-03T11:31:06;2.25;;;0.70;;
20391;SDS011;10355;53.688;10.078;2023-04-03T11:34:05;2.17;;;0.95;;
20391;SDS011;10355;53.688;10.078;2023-04-03T11:36:50;3.85;;;0.88;;
20391;SDS011;10355;53.688;10.078;2023-04-03T11:39:35;1.05;;;0.52;;
20391;SDS011;10355;53.688;10.078;2023-04-03T11:42:25;1.90;;;0.50;;
20391;SDS011;10355;53.688;10.078;2023-04-03T11:57:46;1.13;;;0.60;;
20391;SDS011;10355;53.688;10.078;2023-04-03T12:00:48;4.38;;;0.80;;
20391;SDS011;10355;53.688;10.078;2023-04-03T12:03:33;3.88;;;0.70;;
20391;SDS011;10355;53.688;10.078;2023-04-03T12:09:23;1.52;;;0.68;;
20391;SDS011;10355;53.688;10.078;2023-04-03T12:15:20;2.78;;;0.80;;
20391;SDS011;10355;53.688;10.078;2023-04-03T12:21:01;2.45;;;0.60;;
20391;SDS011;10355;53.688;10.078;2023-04-03T12:26:46;1.08;;;0.50;;
20391;SDS011;10355;53.688;10.078;2023-04-03T12:29:33;1.42;;;0.70;;
20391;SDS011;10355;53.688;10.078;2023-04-03T12:32:21;2.35;;;0.80;;
20391;SDS011;10355;53.688;10.078;2023-04-03T12:35:10;2.47;;;0.50;;
20391;SDS011;10355;53.688;10.078;2023-04-03T12:40:57;2.65;;;0.60;;
20391;SDS011;10355;53.688;10.078;2023-04-03T12:43:43;2.03;;;0.80;;
20391;SDS011;10355;53.688;10.078;2023-04-03T12:46:33;3.65;;;0.65;;
20391;SDS011;10355;53.688;10.078;2023-04-03T12:52:18;0.90;;;0.70;;
20391;SDS011;10355;53.688;10.078;2023-04-03T12:55:02;1.92;;;0.70;;
20391;SDS011;10355;53.688;10.078;2023-04-03T12:57:46;4.60;;;0.70;;
20391;SDS011;10355;53.688;10.078;2023-04-03T13:00:32;2.30;;;0.70;;
20391;SDS011;10355;53.688;10.078;2023-04-03T13:03:21;1.60;;;0.60;;
20391;SDS011;10355;53.688;10.078;2023-04-03T13:06:04;2.45;;;0.75;;
20391;SDS011;10355;53.688;10.078;2023-04-03T13:08:52;1.60;;;0.55;;
20391;SDS011;10355;53.688;10.078;2023-04-03T13:11:36;2.65;;;0.70;;
20391;SDS011;10355;53.688;10.078;2023-04-03T13:14:21;2.22;;;0.80;;
20391;SDS011;10355;53.688;10.078;2023-04-03T13:17:05;1.73;;;0.75;;
20391;SDS011;10355;53.688;10.078;2023-04-03T13:19:48;2.10;;;0.80;;
20391;SDS011;10355;53.688;10.078;2023-04-03T13:22:34;3.30;;;0.90;;
20391;SDS011;10355;53.688;10.078;2023-04-03T13:25:22;2.70;;;0.50;;
20391;SDS011;10355;53.688;10.078;2023-04-03T13:28:05;1.90;;;0.73;;
20391;SDS011;10355;53.688;10.078;2023-04-03T13:30:56;2.28;;;0.50;;
20391;SDS011;10355;53.688;10.078;2023-04-03T13:33:39;1.30;;;0.70;;
20391;SDS011;10355;53.688;10.078;2023-04-03T13:36:26;1.25;;;0.70;;
20391;SDS011;10355;53.688;10.078;2023-04-03T13:39:20;2.33;;;0.82;;
20391;SDS011;10355;53.688;10.078;2023-04-03T13:42:14;2.55;;;0.80;;
20391;SDS011;10355;53.688;10.078;2023-04-03T13:45:09;1.35;;;0.70;;
20391;SDS011;10355;53.688;10.078;2023-04-03T13:47:52;3.72;;;0.63;;
20391;SDS011;10355;53.688;10.078;2023-04-03T13:50:49;2.40;;;0.73;;
20391;SDS011;10355;53.688;10.078;2023-04-03T13:53:33;2.28;;;0.90;;
20391;SDS011;10355;53.688;10.078;2023-04-03T13:56:18;3.75;;;0.90;;
20391;SDS011;10355;53.688;10.078;2023-04-03T13:59:20;1.58;;;0.70;;
20391;SDS011;10355;53.688;10.078;2023-04-03T14:02:10;1.60;;;0.80;;
20391;SDS011;10355;53.688;10.078;2023-04-03T14:04:55;2.38;;;0.80;;
20391;SDS011;10355;53.688;10.078;2023-04-03T14:07:41;1.15;;;0.70;;
20391;SDS011;10355;53.688;10.078;2023-04-03T14:10:24;4.05;;;0.88;;
20391;SDS011;10355;53.688;10.078;2023-04-03T14:13:08;3.05;;;0.90;;
20391;SDS011;10355;53.688;10.078;2023-04-03T14:15:52;3.95;;;0.93;;
20391;SDS011;10355;53.688;10.078;2023-04-03T14:18:40;1.73;;;0.85;;
20391;SDS011;10355;53.688;10.078;2023-04-03T14:21:24;3.33;;;0.60;;
20391;SDS011;10355;53.688;10.078;2023-04-03T14:24:07;1.95;;;0.52;;
20391;SDS011;10355;53.688;10.078;2023-04-03T14:26:50;1.95;;;0.65;;
20391;SDS011;10355;53.688;10.078;2023-04-03T14:29:33;1.73;;;0.60;;
20391;SDS011;10355;53.688;10.078;2023-04-03T14:32:18;1.20;;;0.63;;
20391;SDS011;10355;53.688;10.078;2023-04-03T14:35:01;1.98;;;0.70;;
20391;SDS011;10355;53.688;10.078;2023-04-03T14:37:44;3.13;;;0.90;;
20391;SDS011;10355;53.688;10.078;2023-04-03T14:40:28;2.13;;;0.82;;
20391;SDS011;10355;53.688;10.078;2023-04-03T14:43:11;2.45;;;0.90;;
20391;SDS011;10355;53.688;10.078;2023-04-03T14:45:54;4.68;;;0.70;;
20391;SDS011;10355;53.688;10.078;2023-04-03T14:48:39;1.70;;;0.73;;
20391;SDS011;10355;53.688;10.078;2023-04-03T14:51:22;2.22;;;0.80;;
20391;SDS011;10355;53.688;10.078;2023-04-03T14:54:05;3.80;;;1.00;;
20391;SDS011;10355;53.688;10.078;2023-04-03T14:56:49;3.03;;;1.00;;
20391;SDS011;10355;53.688;10.078;2023-04-03T14:59:32;3.78;;;0.88;;
20391;SDS011;10355;53.688;10.078;2023-04-03T15:02:26;4.10;;;0.90;;
20391;SDS011;10355;53.688;10.078;2023-04-03T15:05:11;1.58;;;0.85;;
20391;SDS011;10355;53.688;10.078;2023-04-03T15:07:55;5.18;;;0.80;;
20391;SDS011;10355;53.688;10.078;2023-04-03T15:10:38;2.58;;;0.80;;
20391;SDS011;10355;53.688;10.078;2023-04-03T15:13:21;2.97;;;0.88;;
20391;SDS011;10355;53.688;10.078;2023-04-03T15:16:04;4.05;;;1.02;;
20391;SDS011;10355;53.688;10.078;2023-04-03T15:18:47;2.67;;;0.80;;
20391;SDS011;10355;53.688;10.078;2023-04-03T15:21:31;2.50;;;0.82;;
20391;SDS011;10355;53.688;10.078;2023-04-03T15:24:14;1.63;;;0.80;;
20391;SDS011;10355;53.688;10.078;2023-04-03T15:26:56;2.35;;;1.00;;
20391;SDS011;10355;53.688;10.078;2023-04-03T15:29:41;4.03;;;0.90;;
20391;SDS011;10355;53.688;10.078;2023-04-03T15:32:24;3.60;;;1.10;;
20391;SDS011;10355;53.688;10.078;2023-04-03T15:35:06;2.00;;;0.95;;
20391;SDS011;10355;53.688;10.078;2023-04-03T15:37:51;2.67;;;0.80;;
20391;SDS011;10355;53.688;10.078;2023-04-03T15:40:33;2.30;;;0.85;;
20391;SDS011;10355;53.688;10.078;2023-04-03T15:43:16;3.53;;;1.10;;
20391;SDS011;10355;53.688;10.078;2023-04-03T15:45:59;1.02;;;0.60;;
20391;SDS011;10355;53.688;10.078;2023-04-03T15:48:42;1.58;;;0.60;;
20391;SDS011;10355;53.688;10.078;2023-04-03T15:51:26;2.72;;;0.63;;
20391;SDS011;10355;53.688;10.078;2023-04-03T15:54:10;1.83;;;0.77;;
20391;SDS011;10355;53.688;10.078;2023-04-03T15:56:53;0.98;;;0.50;;
20391;SDS011;10355;53.688;10.078;2023-04-03T15:59:35;1.83;;;0.75;;
20391;SDS011;10355;53.688;10.078;2023-04-03T16:02:18;1.85;;;0.82;;
20391;SDS011;10355;53.688;10.078;2023-04-03T16:05:01;4.97;;;1.20;;
20391;SDS011;10355;53.688;10.078;2023-04-03T16:07:44;1.73;;;0.80;;
20391;SDS011;10355;53.688;10.078;2023-04-03T16:10:29;2.92;;;0.80;;
20391;SDS011;10355;53.688;10.078;2023-04-03T16:13:11;4.43;;;0.93;;
20391;SDS011;10355;53.688;10.078;2023-04-03T16:15:54;2.88;;;0.85;;
20391;SDS011;10355;53.688;10.078;2023-04-03T16:18:37;3.45;;;0.85;;
20391;SDS011;10355;53.688;10.078;2023-04-03T16:21:19;1.35;;;0.70;;
20391;SDS011;10355;53.688;10.078;2023-04-03T16:24:02;3.90;;;0.90;;
20391;SDS011;10355;53.688;10.078;2023-04-03T16:26:47;2.75;;;0.75;;
20391;SDS011;10355;53.688;10.078;2023-04-03T16:29:29;1.42;;;0.80;;
20391;SDS011;10355;53.688;10.078;2023-04-03T16:32:12;2.50;;;0.70;;
20391;SDS011;10355;53.688;10.078;2023-04-03T16:34:55;3.45;;;0.95;;
20391;SDS011;10355;53.688;10.078;2023-04-03T16:37:38;1.98;;;0.70;;
20391;SDS011;10355;53.688;10.078;2023-04-03T16:40:21;3.72;;;1.35;;
20391;SDS011;10355;53.688;10.078;2023-04-03T16:43:05;3.38;;;1.20;;
20391;SDS011;10355;53.688;10.078;2023-04-03T16:45:47;4.90;;;0.90;;